Details From VOPB - Port Blair
To VYYY - Yangon Intl
Flight Number -
Tags Generated
Created
Modified
Stats Distance 373 nm / 691 km
Max Altitude 0 ft / 0 m
Waypoints 3
Social Downloads 0
Likes 0
Share VATSIM

Download

Looking for another format? Having issues loading an existing format? Contact us
Advertisement - Login to hide

Notes

Generated

Route

VOPB MDS VYYY

ID Type Via Altitude Latitude Longitude Leg Dist Tot Dist Heading (true) Name
O VOPB APT - 0 ft / 0 m 11.62924˚ 92.72083˚ - 0 nm - -
MDS NDB - 0 ft / 0 m 16.87464˚ 96.10983˚ 371 nm 371 nm 32° / 32° MINGALADON NDB
O VYYY APT - 0 ft / 0 m 16.89803˚ 96.12694˚ 1 nm 373 nm 35° / 35° -

Altitude Profile

Advertisement - Login to hide

Weather


0- 5 10 15 20 25 30 35+ Temperature / ° C

Clouds and Precipitation
Forecast for 2017-12-11 06:00 UTC. Updated 28 minutes ago

Ground ~20,000 ft ~40,000 ft Winds

VOPB

Details ICAO VOPB (IXZ)
Name PORT BLAIR
Region India
Timezone Asia/Kolkata (UTC+5.5)
Stats Elevation 14 ft / 4 m (AMSL)
Location 11.641163° 92.729743°
Runways 1
Magnetic Variation 0.804° W

METAR

VOPB 110530Z 07006KT 5000 BR FEW012 FEW018TCU SCT090 30/25 Q1013 NOSIG

Decode

TAF

Not found

Departure Runways

ID Width Length Bearing (true) Bearing (mag) Surface Threshold Offset Overrun Length
04 148 ft / 45 m 10,788 ft / 3,288 m 36.21° 37.01° Asphalt 1,960 ft / 597 m 0 ft / 0 m
22 148 ft / 45 m 10,788 ft / 3,288 m 216.21° 217.01° Asphalt 0 ft / 0 m 460 ft / 140 m

VYYY

Details ICAO VYYY (RGN)
Name YANGON INTL
Region Myanmar
Timezone Asia/Rangoon (UTC+6.5)
Stats Elevation 109 ft / 33 m (AMSL)
Location 16.910841° 96.135680°
Runways 1
Magnetic Variation 0.635° W

METAR

VYYY 110530Z 32004KT 8000 SCT018 FEW025TCU 32/23 Q1013

Decode

TAF

TAF TAF VYYY 102300Z 1100/1124 33005KT 7000 SCT016 FEW020TCU SCT110 BECMG 1100/1102 4000 BR BECMG 1110/1112 6000 HZ

Decode

Destination Runways

ID Width Length Bearing (true) Bearing (mag) Surface Threshold Offset Overrun Length
03 200 ft / 61 m 11,251 ft / 3,429 m 33.10° 33.73° Asphalt 0 ft / 0 m 194 ft / 59 m
21 200 ft / 61 m 11,251 ft / 3,429 m 213.10° 213.73° Asphalt 276 ft / 84 m 0 ft / 0 m

Approach Navaids

Runway Type Ident Frequency Range Bearing (true) Bearing (mag) Slope Elevation
21 Localiser IYGN 109.90 MHz 18 nm / 33 km 213.02° 213.66° - 65 ft / 20 m (AMSL)
21 Glidescope IYGN 109.90 MHz 10 nm / 19 km 213.10° 213.73° 3.00° 65 ft / 20 m (AMSL)
21 DME IYGN 109.90 MHz 18 nm / 33 km - - - 50 ft / 15 m (AMSL)

Popular Alternatives